WARM SPRINGS (USACE) (WRS)

Elevation: 440' · RUSSIAN R basin · Operator: US Army Corps of Engineers

Provisional data, subject to change.
Query executed Thursday at 19:56:56   clock

Select a sensor type for a plot of data.
Note: Reservoir Flows are daily averages.

Earlier

Date RES ELE    STORAGE    RES CHG    TOC STO    ABV TOC    OUTFLOW    INFLOW    PPT INC    TEMP MN    TEMP MX    EVP PAN   
 FEET   AF   AF   AF   AF   CFS   CFS   INCHES   DEG F   DEG F   INCHES  
07/01/2015 432.72 199796 -299 245000 -45204 117 -16 0.00 14 36 0.24
07/02/2015 432.62 199566 -230 245000 -45434 100 0 0.00 15 33 0.22
07/03/2015 432.51 199313 -253 245000 -45687 100 -11 0.00 15 34 0.22
07/04/2015 432.40 199061 -252 245000 -45939 100 -17 0.00 14 34 0.26
07/05/2015 432.30 198832 -229 245000 -46168 100 2 0.00 14 28 0.23
07/06/2015 432.20 198602 -230 245000 -46398 100 2 0.00 15 34 0.24
07/07/2015 432.10 198373 -229 245000 -46627 101 3 0.00 11 31 0.23
07/08/2015 431.99 198122 -251 245000 -46878 100 -9 0.00 11 29 0.23
07/09/2015 431.91 197939 -183 245000 -47061 100 12 0.10 15 19 0.05
07/10/2015 431.82 197733 -206 245000 -47267 100 3 0.00 15 22 0.08
07/11/2015 431.72 197505 -228 245000 -47495 100 1 0.08 17 30 0.21
07/12/2015 431.61 197254 -251 245000 -47746 100 -10 0.03 13 31 0.22
07/13/2015 431.51 197026 -228 245000 -47974 100 3 0.02 13 34 0.24
07/14/2015 431.40 196776 -250 245000 -48224 100 -8 0.00 12 34 0.25
07/15/2015 431.29 196525 -251 245000 -48475 101 -7 0.02 12 37 0.25
07/16/2015 431.20 196321 -204 245000 -48679 100 15 0.00 14 32 0.24
07/17/2015 431.09 196071 -250 245000 -48929 100 -7 0.00 15 34 0.25
07/18/2015 430.98 195821 -250 245000 -49179 100 -8 0.00 14 32 0.24
07/19/2015 430.89 195617 -204 245000 -49383 100 14 0.00 12 37 0.23
07/20/2015 430.78 195368 -249 245000 -49632 100 -6 0.03 17 39 0.26
07/21/2015 430.68 195141 -227 245000 -49859 100 3 0.00 14 32 0.23
07/22/2015 430.57 194892 -249 245000 -50108 100 -8 0.00 12 30 0.23
07/23/2015 430.47 194666 -226 245000 -50334 100 3 0.00 12 30 0.23
07/24/2015 430.35 194395 -271 245000 -50605 100 -19 0.00 9 33 0.23
07/25/2015 430.25 194169 -226 245000 -50831 101 3 0.00 10 31 0.23
07/26/2015 430.15 193944 -225 245000 -51056 101 4 0.00 13 36 0.23
07/27/2015 430.03 193674 -270 245000 -51326 100 -17 0.00 17 39 0.26
07/28/2015 429.93 193448 -226 245000 -51552 101 7 0.01 14 41 0.27
07/29/2015 429.81 193178 -270 245000 -51822 101 -16 0.00 12 42 0.25
07/30/2015 -- -- -- -- -- -- -- -- -- -- --

Later | Latest

Warning! This data is preliminary and subject to revision.

Show WRS Map | Plot WRS Data | 1 Month WRS Data | Real-Time WRS Data | WRS Info